sensor_id;sensor_type;location;lat;lon;timestamp;P1;durP1;ratioP1;P2;durP2;ratioP2
31978;SDS011;18502;43.574;1.276;2023-02-28T00:00:49;7.43;;;4.53;;
31978;SDS011;18502;43.574;1.276;2023-02-28T00:03:14;4.28;;;3.42;;
31978;SDS011;18502;43.574;1.276;2023-02-28T00:05:41;6.50;;;4.18;;
31978;SDS011;18502;43.574;1.276;2023-02-28T00:08:06;6.32;;;4.05;;
31978;SDS011;18502;43.574;1.276;2023-02-28T00:10:33;7.28;;;3.75;;
31978;SDS011;18502;43.574;1.276;2023-02-28T00:13:00;5.53;;;3.97;;
31978;SDS011;18502;43.574;1.276;2023-02-28T00:17:54;5.40;;;3.42;;
31978;SDS011;18502;43.574;1.276;2023-02-28T00:20:20;8.45;;;3.22;;
31978;SDS011;18502;43.574;1.276;2023-02-28T00:22:47;8.10;;;3.67;;
31978;SDS011;18502;43.574;1.276;2023-02-28T00:25:16;7.47;;;4.50;;
31978;SDS011;18502;43.574;1.276;2023-02-28T00:27:44;5.55;;;3.60;;
31978;SDS011;18502;43.574;1.276;2023-02-28T00:30:12;3.63;;;2.92;;
31978;SDS011;18502;43.574;1.276;2023-02-28T00:32:42;5.82;;;3.58;;
31978;SDS011;18502;43.574;1.276;2023-02-28T00:35:09;6.90;;;4.50;;
31978;SDS011;18502;43.574;1.276;2023-02-28T00:37:35;5.47;;;4.43;;
31978;SDS011;18502;43.574;1.276;2023-02-28T00:40:01;7.65;;;3.67;;
31978;SDS011;18502;43.574;1.276;2023-02-28T00:42:29;9.32;;;4.20;;
31978;SDS011;18502;43.574;1.276;2023-02-28T00:44:55;5.95;;;3.75;;
31978;SDS011;18502;43.574;1.276;2023-02-28T00:47:21;4.47;;;2.97;;
31978;SDS011;18502;43.574;1.276;2023-02-28T00:50:18;6.22;;;3.60;;
31978;SDS011;18502;43.574;1.276;2023-02-28T00:52:45;5.20;;;3.88;;
31978;SDS011;18502;43.574;1.276;2023-02-28T00:55:11;6.35;;;3.45;;
31978;SDS011;18502;43.574;1.276;2023-02-28T00:57:37;9.18;;;4.45;;
31978;SDS011;18502;43.574;1.276;2023-02-28T01:00:03;6.47;;;3.47;;
31978;SDS011;18502;43.574;1.276;2023-02-28T01:02:30;4.97;;;2.83;;
31978;SDS011;18502;43.574;1.276;2023-02-28T01:04:55;5.30;;;3.67;;
31978;SDS011;18502;43.574;1.276;2023-02-28T01:07:22;7.80;;;4.03;;
31978;SDS011;18502;43.574;1.276;2023-02-28T01:09:48;6.05;;;3.58;;
31978;SDS011;18502;43.574;1.276;2023-02-28T01:12:13;8.50;;;4.20;;
31978;SDS011;18502;43.574;1.276;2023-02-28T01:14:39;8.00;;;4.55;;
31978;SDS011;18502;43.574;1.276;2023-02-28T01:17:05;8.10;;;4.43;;
31978;SDS011;18502;43.574;1.276;2023-02-28T01:19:31;6.50;;;4.10;;
31978;SDS011;18502;43.574;1.276;2023-02-28T01:22:00;8.48;;;4.55;;
31978;SDS011;18502;43.574;1.276;2023-02-28T01:24:27;6.78;;;5.00;;
31978;SDS011;18502;43.574;1.276;2023-02-28T01:26:53;8.20;;;5.00;;
31978;SDS011;18502;43.574;1.276;2023-02-28T01:29:18;6.28;;;4.00;;
31978;SDS011;18502;43.574;1.276;2023-02-28T01:31:44;7.00;;;4.10;;
31978;SDS011;18502;43.574;1.276;2023-02-28T01:34:09;5.32;;;2.67;;
31978;SDS011;18502;43.574;1.276;2023-02-28T01:36:35;7.72;;;4.32;;
31978;SDS011;18502;43.574;1.276;2023-02-28T01:39:01;5.43;;;3.78;;
31978;SDS011;18502;43.574;1.276;2023-02-28T01:41:29;6.70;;;4.35;;
31978;SDS011;18502;43.574;1.276;2023-02-28T01:47:03;6.28;;;4.55;;
31978;SDS011;18502;43.574;1.276;2023-02-28T01:49:29;6.10;;;4.50;;
31978;SDS011;18502;43.574;1.276;2023-02-28T01:51:54;6.32;;;3.85;;
31978;SDS011;18502;43.574;1.276;2023-02-28T01:54:23;6.80;;;3.67;;
31978;SDS011;18502;43.574;1.276;2023-02-28T01:56:55;5.20;;;4.00;;
31978;SDS011;18502;43.574;1.276;2023-02-28T01:59:27;9.25;;;4.40;;
31978;SDS011;18502;43.574;1.276;2023-02-28T02:01:56;5.70;;;3.63;;
31978;SDS011;18502;43.574;1.276;2023-02-28T02:04:23;6.07;;;4.35;;
31978;SDS011;18502;43.574;1.276;2023-02-28T02:06:57;5.88;;;3.42;;
31978;SDS011;18502;43.574;1.276;2023-02-28T02:09:24;6.22;;;4.38;;
31978;SDS011;18502;43.574;1.276;2023-02-28T02:11:49;7.93;;;4.43;;
31978;SDS011;18502;43.574;1.276;2023-02-28T02:14:28;8.48;;;4.03;;
31978;SDS011;18502;43.574;1.276;2023-02-28T02:17:25;9.43;;;4.75;;
31978;SDS011;18502;43.574;1.276;2023-02-28T02:25:42;8.52;;;5.13;;
31978;SDS011;18502;43.574;1.276;2023-02-28T02:28:26;7.95;;;4.85;;
31978;SDS011;18502;43.574;1.276;2023-02-28T02:36:38;6.65;;;4.40;;
31978;SDS011;18502;43.574;1.276;2023-02-28T02:39:08;6.00;;;4.07;;
31978;SDS011;18502;43.574;1.276;2023-02-28T02:41:53;6.25;;;4.25;;
31978;SDS011;18502;43.574;1.276;2023-02-28T02:44:36;5.80;;;4.60;;
31978;SDS011;18502;43.574;1.276;2023-02-28T02:47:13;6.82;;;4.65;;
31978;SDS011;18502;43.574;1.276;2023-02-28T02:49:43;8.30;;;5.57;;
31978;SDS011;18502;43.574;1.276;2023-02-28T02:52:14;6.80;;;3.97;;
31978;SDS011;18502;43.574;1.276;2023-02-28T02:54:43;7.80;;;5.10;;
31978;SDS011;18502;43.574;1.276;2023-02-28T02:57:13;10.38;;;4.72;;
31978;SDS011;18502;43.574;1.276;2023-02-28T02:59:44;4.75;;;4.15;;
31978;SDS011;18502;43.574;1.276;2023-02-28T03:02:11;9.02;;;5.38;;
31978;SDS011;18502;43.574;1.276;2023-02-28T03:04:40;7.53;;;4.45;;
31978;SDS011;18502;43.574;1.276;2023-02-28T03:07:10;11.00;;;4.50;;
31978;SDS011;18502;43.574;1.276;2023-02-28T03:09:36;9.40;;;4.93;;
31978;SDS011;18502;43.574;1.276;2023-02-28T03:12:02;8.80;;;4.85;;
31978;SDS011;18502;43.574;1.276;2023-02-28T03:14:37;5.25;;;3.85;;
31978;SDS011;18502;43.574;1.276;2023-02-28T03:22:45;8.48;;;4.63;;
31978;SDS011;18502;43.574;1.276;2023-02-28T03:33:19;8.27;;;5.05;;
31978;SDS011;18502;43.574;1.276;2023-02-28T03:35:56;7.93;;;5.00;;
31978;SDS011;18502;43.574;1.276;2023-02-28T03:38:39;6.53;;;4.28;;
31978;SDS011;18502;43.574;1.276;2023-02-28T03:41:09;8.55;;;4.97;;
31978;SDS011;18502;43.574;1.276;2023-02-28T03:43:36;7.80;;;5.00;;
31978;SDS011;18502;43.574;1.276;2023-02-28T03:48:44;7.30;;;5.05;;
31978;SDS011;18502;43.574;1.276;2023-02-28T03:53:43;7.10;;;5.28;;
31978;SDS011;18502;43.574;1.276;2023-02-28T03:56:20;9.43;;;4.35;;
31978;SDS011;18502;43.574;1.276;2023-02-28T04:01:45;11.48;;;5.05;;
31978;SDS011;18502;43.574;1.276;2023-02-28T04:04:13;8.15;;;4.25;;
31978;SDS011;18502;43.574;1.276;2023-02-28T04:06:40;7.13;;;4.22;;
31978;SDS011;18502;43.574;1.276;2023-02-28T04:09:08;7.15;;;5.18;;
31978;SDS011;18502;43.574;1.276;2023-02-28T04:11:36;10.70;;;5.50;;
31978;SDS011;18502;43.574;1.276;2023-02-28T04:14:07;8.77;;;5.57;;
31978;SDS011;18502;43.574;1.276;2023-02-28T04:16:35;7.65;;;4.80;;
31978;SDS011;18502;43.574;1.276;2023-02-28T04:19:03;7.80;;;5.97;;
31978;SDS011;18502;43.574;1.276;2023-02-28T04:21:33;8.57;;;5.68;;
31978;SDS011;18502;43.574;1.276;2023-02-28T04:24:00;11.65;;;6.50;;
31978;SDS011;18502;43.574;1.276;2023-02-28T04:26:30;9.30;;;5.13;;
31978;SDS011;18502;43.574;1.276;2023-02-28T04:28:57;10.02;;;5.90;;
31978;SDS011;18502;43.574;1.276;2023-02-28T04:31:23;10.07;;;6.32;;
31978;SDS011;18502;43.574;1.276;2023-02-28T04:33:49;8.65;;;6.07;;
31978;SDS011;18502;43.574;1.276;2023-02-28T04:36:14;10.05;;;4.88;;
31978;SDS011;18502;43.574;1.276;2023-02-28T04:38:42;10.10;;;5.72;;
31978;SDS011;18502;43.574;1.276;2023-02-28T04:41:08;10.02;;;6.18;;
31978;SDS011;18502;43.574;1.276;2023-02-28T04:43:34;9.30;;;6.35;;
31978;SDS011;18502;43.574;1.276;2023-02-28T04:46:01;9.63;;;6.20;;
31978;SDS011;18502;43.574;1.276;2023-02-28T04:48:29;10.13;;;6.50;;
31978;SDS011;18502;43.574;1.276;2023-02-28T04:50:59;11.50;;;6.43;;
31978;SDS011;18502;43.574;1.276;2023-02-28T04:53:29;12.32;;;7.25;;
31978;SDS011;18502;43.574;1.276;2023-02-28T04:55:55;11.73;;;6.63;;
31978;SDS011;18502;43.574;1.276;2023-02-28T04:58:22;11.35;;;6.55;;
31978;SDS011;18502;43.574;1.276;2023-02-28T05:00:49;11.43;;;7.00;;
31978;SDS011;18502;43.574;1.276;2023-02-28T05:03:15;11.80;;;7.40;;
31978;SDS011;18502;43.574;1.276;2023-02-28T05:05:41;10.60;;;7.20;;
31978;SDS011;18502;43.574;1.276;2023-02-28T05:08:06;12.30;;;7.40;;
31978;SDS011;18502;43.574;1.276;2023-02-28T05:10:32;9.95;;;7.13;;
31978;SDS011;18502;43.574;1.276;2023-02-28T05:12:58;11.90;;;8.82;;
31978;SDS011;18502;43.574;1.276;2023-02-28T05:15:23;11.48;;;7.78;;
31978;SDS011;18502;43.574;1.276;2023-02-28T05:17:49;11.65;;;7.35;;
31978;SDS011;18502;43.574;1.276;2023-02-28T05:20:15;9.00;;;7.43;;
31978;SDS011;18502;43.574;1.276;2023-02-28T05:22:42;11.27;;;7.65;;
31978;SDS011;18502;43.574;1.276;2023-02-28T05:25:12;12.13;;;7.50;;
31978;SDS011;18502;43.574;1.276;2023-02-28T05:27:41;17.05;;;8.05;;
31978;SDS011;18502;43.574;1.276;2023-02-28T05:30:07;9.95;;;7.93;;
31978;SDS011;18502;43.574;1.276;2023-02-28T05:32:36;13.15;;;9.45;;
31978;SDS011;18502;43.574;1.276;2023-02-28T05:35:02;14.18;;;8.02;;
31978;SDS011;18502;43.574;1.276;2023-02-28T05:37:28;11.00;;;8.55;;
31978;SDS011;18502;43.574;1.276;2023-02-28T05:39:54;14.90;;;9.32;;
31978;SDS011;18502;43.574;1.276;2023-02-28T05:42:19;15.35;;;10.18;;
31978;SDS011;18502;43.574;1.276;2023-02-28T05:44:45;14.30;;;8.93;;
31978;SDS011;18502;43.574;1.276;2023-02-28T05:47:11;11.30;;;8.02;;
31978;SDS011;18502;43.574;1.276;2023-02-28T05:49:40;12.30;;;7.47;;
31978;SDS011;18502;43.574;1.276;2023-02-28T05:52:06;12.18;;;7.82;;
31978;SDS011;18502;43.574;1.276;2023-02-28T05:54:32;10.43;;;7.93;;
31978;SDS011;18502;43.574;1.276;2023-02-28T05:56:58;16.15;;;8.98;;
31978;SDS011;18502;43.574;1.276;2023-02-28T05:59:24;12.63;;;9.15;;
31978;SDS011;18502;43.574;1.276;2023-02-28T06:01:50;13.50;;;8.38;;
31978;SDS011;18502;43.574;1.276;2023-02-28T06:04:18;11.40;;;8.57;;
31978;SDS011;18502;43.574;1.276;2023-02-28T06:06:49;15.50;;;8.45;;
31978;SDS011;18502;43.574;1.276;2023-02-28T06:09:15;14.48;;;9.50;;
31978;SDS011;18502;43.574;1.276;2023-02-28T06:11:41;11.27;;;7.60;;
31978;SDS011;18502;43.574;1.276;2023-02-28T06:14:07;11.23;;;8.07;;
31978;SDS011;18502;43.574;1.276;2023-02-28T06:16:37;14.43;;;8.18;;
31978;SDS011;18502;43.574;1.276;2023-02-28T06:19:03;15.48;;;9.10;;
31978;SDS011;18502;43.574;1.276;2023-02-28T06:21:29;12.60;;;7.95;;
31978;SDS011;18502;43.574;1.276;2023-02-28T06:23:56;12.63;;;8.60;;
31978;SDS011;18502;43.574;1.276;2023-02-28T06:26:22;17.55;;;8.98;;
31978;SDS011;18502;43.574;1.276;2023-02-28T06:28:49;13.32;;;8.52;;
31978;SDS011;18502;43.574;1.276;2023-02-28T06:31:15;22.35;;;10.55;;
31978;SDS011;18502;43.574;1.276;2023-02-28T06:33:43;14.90;;;8.52;;
31978;SDS011;18502;43.574;1.276;2023-02-28T06:36:10;15.65;;;8.45;;
31978;SDS011;18502;43.574;1.276;2023-02-28T06:38:38;15.48;;;9.18;;
31978;SDS011;18502;43.574;1.276;2023-02-28T06:41:04;14.20;;;8.60;;
31978;SDS011;18502;43.574;1.276;2023-02-28T06:43:33;15.30;;;8.95;;
31978;SDS011;18502;43.574;1.276;2023-02-28T06:46:01;14.88;;;8.70;;
31978;SDS011;18502;43.574;1.276;2023-02-28T06:48:29;14.65;;;8.88;;
31978;SDS011;18502;43.574;1.276;2023-02-28T06:51:02;14.10;;;8.57;;
31978;SDS011;18502;43.574;1.276;2023-02-28T06:53:32;15.52;;;9.77;;
31978;SDS011;18502;43.574;1.276;2023-02-28T06:55:58;12.60;;;8.98;;
31978;SDS011;18502;43.574;1.276;2023-02-28T06:58:24;15.13;;;9.32;;
31978;SDS011;18502;43.574;1.276;2023-02-28T07:00:50;12.95;;;8.35;;
31978;SDS011;18502;43.574;1.276;2023-02-28T07:03:17;14.98;;;9.05;;
31978;SDS011;18502;43.574;1.276;2023-02-28T07:05:43;13.82;;;8.93;;
31978;SDS011;18502;43.574;1.276;2023-02-28T07:08:09;19.02;;;9.00;;
31978;SDS011;18502;43.574;1.276;2023-02-28T07:10:38;14.88;;;9.25;;
31978;SDS011;18502;43.574;1.276;2023-02-28T07:13:05;8.73;;;6.85;;
31978;SDS011;18502;43.574;1.276;2023-02-28T07:15:32;13.52;;;8.93;;
31978;SDS011;18502;43.574;1.276;2023-02-28T07:17:58;16.27;;;9.43;;
31978;SDS011;18502;43.574;1.276;2023-02-28T07:20:24;18.75;;;9.63;;
31978;SDS011;18502;43.574;1.276;2023-02-28T07:22:50;13.80;;;9.07;;
31978;SDS011;18502;43.574;1.276;2023-02-28T07:25:24;13.95;;;8.27;;
31978;SDS011;18502;43.574;1.276;2023-02-28T07:30:17;11.75;;;8.00;;
31978;SDS011;18502;43.574;1.276;2023-02-28T07:32:43;12.35;;;8.18;;
31978;SDS011;18502;43.574;1.276;2023-02-28T07:35:09;10.02;;;6.38;;
31978;SDS011;18502;43.574;1.276;2023-02-28T07:37:35;11.50;;;7.05;;
31978;SDS011;18502;43.574;1.276;2023-02-28T07:40:05;11.90;;;6.35;;
31978;SDS011;18502;43.574;1.276;2023-02-28T07:42:33;8.85;;;6.07;;
31978;SDS011;18502;43.574;1.276;2023-02-28T07:45:00;8.60;;;5.85;;
31978;SDS011;18502;43.574;1.276;2023-02-28T07:47:26;15.07;;;6.80;;
31978;SDS011;18502;43.574;1.276;2023-02-28T07:49:51;9.75;;;6.32;;
31978;SDS011;18502;43.574;1.276;2023-02-28T07:52:17;11.20;;;6.53;;
31978;SDS011;18502;43.574;1.276;2023-02-28T07:54:43;9.65;;;6.32;;
31978;SDS011;18502;43.574;1.276;2023-02-28T07:57:09;11.30;;;7.03;;
31978;SDS011;18502;43.574;1.276;2023-02-28T07:59:34;9.82;;;6.80;;
31978;SDS011;18502;43.574;1.276;2023-02-28T08:02:00;10.80;;;7.10;;
31978;SDS011;18502;43.574;1.276;2023-02-28T08:04:26;8.82;;;5.75;;
31978;SDS011;18502;43.574;1.276;2023-02-28T08:06:51;11.90;;;6.53;;
31978;SDS011;18502;43.574;1.276;2023-02-28T08:09:18;8.93;;;5.38;;
31978;SDS011;18502;43.574;1.276;2023-02-28T08:11:44;8.57;;;6.15;;
31978;SDS011;18502;43.574;1.276;2023-02-28T08:14:09;10.90;;;6.38;;
31978;SDS011;18502;43.574;1.276;2023-02-28T08:16:35;8.77;;;6.30;;
31978;SDS011;18502;43.574;1.276;2023-02-28T08:19:02;7.57;;;5.68;;
31978;SDS011;18502;43.574;1.276;2023-02-28T08:21:27;10.35;;;6.50;;
31978;SDS011;18502;43.574;1.276;2023-02-28T08:23:53;8.20;;;5.38;;
31978;SDS011;18502;43.574;1.276;2023-02-28T08:26:19;6.40;;;5.03;;
31978;SDS011;18502;43.574;1.276;2023-02-28T08:28:45;7.97;;;5.28;;
31978;SDS011;18502;43.574;1.276;2023-02-28T08:31:12;7.57;;;5.70;;
31978;SDS011;18502;43.574;1.276;2023-02-28T08:33:40;6.53;;;4.55;;
31978;SDS011;18502;43.574;1.276;2023-02-28T08:36:07;7.25;;;4.95;;
31978;SDS011;18502;43.574;1.276;2023-02-28T08:38:33;6.28;;;4.95;;
31978;SDS011;18502;43.574;1.276;2023-02-28T08:41:01;9.10;;;6.72;;
31978;SDS011;18502;43.574;1.276;2023-02-28T08:43:32;16.70;;;12.52;;
31978;SDS011;18502;43.574;1.276;2023-02-28T08:46:01;5.23;;;4.30;;
31978;SDS011;18502;43.574;1.276;2023-02-28T08:48:28;9.32;;;5.22;;
31978;SDS011;18502;43.574;1.276;2023-02-28T08:53:23;9.20;;;6.00;;
31978;SDS011;18502;43.574;1.276;2023-02-28T08:55:55;7.90;;;5.00;;
31978;SDS011;18502;43.574;1.276;2023-02-28T08:58:25;11.80;;;4.72;;
31978;SDS011;18502;43.574;1.276;2023-02-28T09:00:51;8.02;;;5.38;;
31978;SDS011;18502;43.574;1.276;2023-02-28T09:03:17;9.90;;;4.85;;
31978;SDS011;18502;43.574;1.276;2023-02-28T09:08:39;7.93;;;5.93;;
31978;SDS011;18502;43.574;1.276;2023-02-28T09:11:05;7.65;;;3.97;;
31978;SDS011;18502;43.574;1.276;2023-02-28T09:13:31;6.43;;;4.65;;
31978;SDS011;18502;43.574;1.276;2023-02-28T09:15:58;6.55;;;5.40;;
31978;SDS011;18502;43.574;1.276;2023-02-28T09:18:25;9.82;;;5.75;;
31978;SDS011;18502;43.574;1.276;2023-02-28T09:20:51;5.25;;;4.15;;
31978;SDS011;18502;43.574;1.276;2023-02-28T09:23:17;8.75;;;5.38;;
31978;SDS011;18502;43.574;1.276;2023-02-28T09:25:47;8.15;;;5.30;;
31978;SDS011;18502;43.574;1.276;2023-02-28T09:28:14;7.20;;;5.00;;
31978;SDS011;18502;43.574;1.276;2023-02-28T09:30:41;8.00;;;4.65;;
31978;SDS011;18502;43.574;1.276;2023-02-28T09:33:07;6.63;;;5.18;;
31978;SDS011;18502;43.574;1.276;2023-02-28T09:35:33;5.90;;;4.50;;
31978;SDS011;18502;43.574;1.276;2023-02-28T09:37:58;8.82;;;6.10;;
31978;SDS011;18502;43.574;1.276;2023-02-28T09:40:24;5.43;;;3.17;;
31978;SDS011;18502;43.574;1.276;2023-02-28T09:42:52;8.75;;;5.50;;
31978;SDS011;18502;43.574;1.276;2023-02-28T09:45:22;6.85;;;5.15;;
31978;SDS011;18502;43.574;1.276;2023-02-28T09:47:49;11.00;;;7.00;;
31978;SDS011;18502;43.574;1.276;2023-02-28T09:52:51;7.50;;;5.45;;
31978;SDS011;18502;43.574;1.276;2023-02-28T09:55:24;9.02;;;6.28;;
31978;SDS011;18502;43.574;1.276;2023-02-28T09:58:19;6.55;;;4.82;;
31978;SDS011;18502;43.574;1.276;2023-02-28T10:01:02;6.78;;;4.53;;
31978;SDS011;18502;43.574;1.276;2023-02-28T10:03:49;9.02;;;5.55;;
31978;SDS011;18502;43.574;1.276;2023-02-28T10:06:45;9.45;;;5.78;;
31978;SDS011;18502;43.574;1.276;2023-02-28T10:09:19;8.95;;;5.00;;
31978;SDS011;18502;43.574;1.276;2023-02-28T10:11:54;6.78;;;4.82;;
31978;SDS011;18502;43.574;1.276;2023-02-28T10:14:26;5.57;;;4.47;;
31978;SDS011;18502;43.574;1.276;2023-02-28T10:22:34;6.15;;;4.00;;
31978;SDS011;18502;43.574;1.276;2023-02-28T10:25:17;6.82;;;4.85;;
31978;SDS011;18502;43.574;1.276;2023-02-28T10:27:45;6.78;;;4.53;;
31978;SDS011;18502;43.574;1.276;2023-02-28T10:30:10;7.53;;;5.20;;
31978;SDS011;18502;43.574;1.276;2023-02-28T10:32:38;7.30;;;4.97;;
31978;SDS011;18502;43.574;1.276;2023-02-28T10:37:40;9.23;;;5.15;;
31978;SDS011;18502;43.574;1.276;2023-02-28T10:40:30;8.00;;;5.72;;
31978;SDS011;18502;43.574;1.276;2023-02-28T10:42:56;8.85;;;4.93;;
31978;SDS011;18502;43.574;1.276;2023-02-28T10:45:25;7.63;;;5.30;;
31978;SDS011;18502;43.574;1.276;2023-02-28T10:47:55;6.40;;;4.65;;
31978;SDS011;18502;43.574;1.276;2023-02-28T10:50:27;9.55;;;5.35;;
31978;SDS011;18502;43.574;1.276;2023-02-28T10:53:05;5.40;;;4.25;;
31978;SDS011;18502;43.574;1.276;2023-02-28T10:55:32;9.15;;;5.88;;
31978;SDS011;18502;43.574;1.276;2023-02-28T10:57:58;8.80;;;5.25;;
31978;SDS011;18502;43.574;1.276;2023-02-28T11:00:24;7.78;;;5.50;;
31978;SDS011;18502;43.574;1.276;2023-02-28T11:02:56;7.32;;;5.60;;
31978;SDS011;18502;43.574;1.276;2023-02-28T11:05:30;9.02;;;6.80;;
31978;SDS011;18502;43.574;1.276;2023-02-28T11:08:01;7.55;;;5.80;;
31978;SDS011;18502;43.574;1.276;2023-02-28T11:10:38;8.10;;;5.57;;
31978;SDS011;18502;43.574;1.276;2023-02-28T11:13:04;6.50;;;5.43;;
31978;SDS011;18502;43.574;1.276;2023-02-28T11:15:32;5.63;;;4.90;;
31978;SDS011;18502;43.574;1.276;2023-02-28T11:20:40;6.72;;;4.88;;
31978;SDS011;18502;43.574;1.276;2023-02-28T11:23:05;9.32;;;7.03;;
31978;SDS011;18502;43.574;1.276;2023-02-28T11:25:38;7.97;;;5.35;;
31978;SDS011;18502;43.574;1.276;2023-02-28T11:28:05;9.25;;;6.53;;
31978;SDS011;18502;43.574;1.276;2023-02-28T11:30:59;9.02;;;7.60;;
31978;SDS011;18502;43.574;1.276;2023-02-28T11:33:30;9.20;;;6.05;;
31978;SDS011;18502;43.574;1.276;2023-02-28T11:35:58;10.93;;;7.10;;
31978;SDS011;18502;43.574;1.276;2023-02-28T11:38:26;11.83;;;8.67;;
31978;SDS011;18502;43.574;1.276;2023-02-28T11:52:20;6.50;;;4.60;;
31978;SDS011;18502;43.574;1.276;2023-02-28T11:57:47;5.60;;;4.72;;
31978;SDS011;18502;43.574;1.276;2023-02-28T12:03:10;7.93;;;5.05;;
31978;SDS011;18502;43.574;1.276;2023-02-28T12:05:49;9.20;;;5.45;;
31978;SDS011;18502;43.574;1.276;2023-02-28T12:22:43;8.85;;;6.20;;
31978;SDS011;18502;43.574;1.276;2023-02-28T12:25:43;8.27;;;5.38;;
31978;SDS011;18502;43.574;1.276;2023-02-28T12:28:20;15.73;;;8.82;;
31978;SDS011;18502;43.574;1.276;2023-02-28T12:30:56;9.38;;;6.72;;
31978;SDS011;18502;43.574;1.276;2023-02-28T12:33:28;7.75;;;6.03;;
31978;SDS011;18502;43.574;1.276;2023-02-28T12:35:59;8.48;;;6.13;;
31978;SDS011;18502;43.574;1.276;2023-02-28T12:38:51;12.98;;;8.55;;
31978;SDS011;18502;43.574;1.276;2023-02-28T12:41:34;7.07;;;5.45;;
31978;SDS011;18502;43.574;1.276;2023-02-28T12:44:18;8.95;;;6.85;;
31978;SDS011;18502;43.574;1.276;2023-02-28T12:46:54;14.48;;;8.57;;
31978;SDS011;18502;43.574;1.276;2023-02-28T12:49:25;8.25;;;6.45;;
31978;SDS011;18502;43.574;1.276;2023-02-28T12:52:08;8.75;;;6.30;;
31978;SDS011;18502;43.574;1.276;2023-02-28T12:54:47;7.35;;;5.82;;
31978;SDS011;18502;43.574;1.276;2023-02-28T12:57:36;7.22;;;5.95;;
31978;SDS011;18502;43.574;1.276;2023-02-28T13:00:20;7.82;;;5.70;;
31978;SDS011;18502;43.574;1.276;2023-02-28T13:10:47;10.57;;;7.90;;
31978;SDS011;18502;43.574;1.276;2023-02-28T13:13:21;11.98;;;7.55;;
31978;SDS011;18502;43.574;1.276;2023-02-28T13:15:59;8.15;;;6.15;;
31978;SDS011;18502;43.574;1.276;2023-02-28T13:18:29;6.10;;;4.47;;
31978;SDS011;18502;43.574;1.276;2023-02-28T13:21:05;6.63;;;4.75;;
31978;SDS011;18502;43.574;1.276;2023-02-28T13:34:31;8.15;;;5.22;;
31978;SDS011;18502;43.574;1.276;2023-02-28T13:47:36;6.53;;;4.15;;
31978;SDS011;18502;43.574;1.276;2023-02-28T13:50:21;5.10;;;4.18;;
31978;SDS011;18502;43.574;1.276;2023-02-28T14:06:30;6.18;;;4.25;;
31978;SDS011;18502;43.574;1.276;2023-02-28T14:11:27;4.00;;;3.60;;
31978;SDS011;18502;43.574;1.276;2023-02-28T14:13:59;4.43;;;3.67;;
31978;SDS011;18502;43.574;1.276;2023-02-28T14:16:35;6.47;;;3.88;;
31978;SDS011;18502;43.574;1.276;2023-02-28T14:19:09;4.93;;;3.70;;
31978;SDS011;18502;43.574;1.276;2023-02-28T14:21:43;5.43;;;3.65;;
31978;SDS011;18502;43.574;1.276;2023-02-28T14:32:35;8.15;;;4.47;;
31978;SDS011;18502;43.574;1.276;2023-02-28T14:37:51;9.32;;;5.07;;
31978;SDS011;18502;43.574;1.276;2023-02-28T14:42:55;12.98;;;10.40;;
31978;SDS011;18502;43.574;1.276;2023-02-28T14:45:27;7.63;;;5.95;;
31978;SDS011;18502;43.574;1.276;2023-02-28T14:47:55;38.63;;;20.03;;
31978;SDS011;18502;43.574;1.276;2023-02-28T14:50:24;17.48;;;9.70;;
31978;SDS011;18502;43.574;1.276;2023-02-28T14:52:55;31.48;;;15.93;;
31978;SDS011;18502;43.574;1.276;2023-02-28T14:55:24;26.40;;;14.43;;
31978;SDS011;18502;43.574;1.276;2023-02-28T14:57:56;6.93;;;4.65;;
31978;SDS011;18502;43.574;1.276;2023-02-28T15:00:28;6.35;;;5.35;;
31978;SDS011;18502;43.574;1.276;2023-02-28T15:02:58;5.50;;;4.57;;
31978;SDS011;18502;43.574;1.276;2023-02-28T15:05:30;14.60;;;7.20;;
31978;SDS011;18502;43.574;1.276;2023-02-28T15:08:01;36.05;;;14.52;;
31978;SDS011;18502;43.574;1.276;2023-02-28T15:10:29;59.40;;;23.35;;
31978;SDS011;18502;43.574;1.276;2023-02-28T15:15:22;13.98;;;7.57;;
31978;SDS011;18502;43.574;1.276;2023-02-28T15:17:52;18.02;;;9.43;;
31978;SDS011;18502;43.574;1.276;2023-02-28T15:20:21;16.73;;;10.45;;
31978;SDS011;18502;43.574;1.276;2023-02-28T15:22:49;9.95;;;5.93;;
31978;SDS011;18502;43.574;1.276;2023-02-28T15:25:21;11.07;;;7.18;;
31978;SDS011;18502;43.574;1.276;2023-02-28T15:27:49;9.93;;;6.25;;
31978;SDS011;18502;43.574;1.276;2023-02-28T15:30:19;9.07;;;6.45;;
31978;SDS011;18502;43.574;1.276;2023-02-28T15:33:06;9.73;;;5.25;;
31978;SDS011;18502;43.574;1.276;2023-02-28T15:38:55;7.38;;;4.95;;
31978;SDS011;18502;43.574;1.276;2023-02-28T15:41:28;10.25;;;5.80;;
31978;SDS011;18502;43.574;1.276;2023-02-28T15:47:04;9.75;;;4.93;;
31978;SDS011;18502;43.574;1.276;2023-02-28T15:49:34;5.93;;;4.70;;
31978;SDS011;18502;43.574;1.276;2023-02-28T15:52:15;7.88;;;5.07;;
31978;SDS011;18502;43.574;1.276;2023-02-28T15:54:46;10.73;;;5.20;;
31978;SDS011;18502;43.574;1.276;2023-02-28T15:57:13;16.77;;;9.85;;
31978;SDS011;18502;43.574;1.276;2023-02-28T15:59:57;9.02;;;4.60;;
31978;SDS011;18502;43.574;1.276;2023-02-28T16:02:32;8.60;;;6.22;;
31978;SDS011;18502;43.574;1.276;2023-02-28T16:07:41;8.88;;;4.40;;
31978;SDS011;18502;43.574;1.276;2023-02-28T16:10:09;5.70;;;4.18;;
31978;SDS011;18502;43.574;1.276;2023-02-28T16:12:37;11.40;;;7.53;;
31978;SDS011;18502;43.574;1.276;2023-02-28T16:15:08;8.00;;;4.95;;
31978;SDS011;18502;43.574;1.276;2023-02-28T16:20:24;10.25;;;6.50;;
31978;SDS011;18502;43.574;1.276;2023-02-28T16:22:52;8.05;;;5.28;;
31978;SDS011;18502;43.574;1.276;2023-02-28T16:25:19;5.68;;;4.43;;
31978;SDS011;18502;43.574;1.276;2023-02-28T16:27:48;9.75;;;6.00;;
31978;SDS011;18502;43.574;1.276;2023-02-28T16:30:23;8.48;;;6.45;;
31978;SDS011;18502;43.574;1.276;2023-02-28T16:32:51;6.28;;;4.55;;
31978;SDS011;18502;43.574;1.276;2023-02-28T16:35:19;12.05;;;7.03;;
31978;SDS011;18502;43.574;1.276;2023-02-28T16:37:45;6.00;;;4.80;;
31978;SDS011;18502;43.574;1.276;2023-02-28T16:45:11;6.20;;;4.22;;
31978;SDS011;18502;43.574;1.276;2023-02-28T16:47:45;6.97;;;4.43;;
31978;SDS011;18502;43.574;1.276;2023-02-28T16:50:12;8.52;;;5.68;;
31978;SDS011;18502;43.574;1.276;2023-02-28T16:52:48;7.13;;;4.75;;
31978;SDS011;18502;43.574;1.276;2023-02-28T16:55:17;10.57;;;5.78;;
31978;SDS011;18502;43.574;1.276;2023-02-28T16:57:50;9.15;;;5.65;;
31978;SDS011;18502;43.574;1.276;2023-02-28T17:00:20;7.18;;;4.95;;
31978;SDS011;18502;43.574;1.276;2023-02-28T17:02:47;9.70;;;5.88;;
31978;SDS011;18502;43.574;1.276;2023-02-28T17:05:12;6.40;;;5.03;;
31978;SDS011;18502;43.574;1.276;2023-02-28T17:07:40;8.50;;;5.13;;
31978;SDS011;18502;43.574;1.276;2023-02-28T17:10:25;7.65;;;5.10;;
31978;SDS011;18502;43.574;1.276;2023-02-28T17:12:51;13.25;;;6.25;;
31978;SDS011;18502;43.574;1.276;2023-02-28T17:15:18;7.40;;;5.70;;
31978;SDS011;18502;43.574;1.276;2023-02-28T17:17:44;11.55;;;6.10;;
31978;SDS011;18502;43.574;1.276;2023-02-28T17:20:19;9.93;;;6.53;;
31978;SDS011;18502;43.574;1.276;2023-02-28T17:22:47;8.77;;;5.10;;
31978;SDS011;18502;43.574;1.276;2023-02-28T17:25:14;11.07;;;7.57;;
31978;SDS011;18502;43.574;1.276;2023-02-28T17:27:40;10.07;;;6.63;;
31978;SDS011;18502;43.574;1.276;2023-02-28T17:30:25;7.15;;;5.40;;
31978;SDS011;18502;43.574;1.276;2023-02-28T17:32:55;10.70;;;6.15;;
31978;SDS011;18502;43.574;1.276;2023-02-28T17:35:22;9.10;;;6.13;;
31978;SDS011;18502;43.574;1.276;2023-02-28T17:37:48;7.57;;;5.30;;
31978;SDS011;18502;43.574;1.276;2023-02-28T17:40:15;9.13;;;5.53;;
31978;SDS011;18502;43.574;1.276;2023-02-28T17:42:43;10.13;;;5.88;;
31978;SDS011;18502;43.574;1.276;2023-02-28T17:45:09;10.63;;;6.30;;
31978;SDS011;18502;43.574;1.276;2023-02-28T17:47:35;8.48;;;6.07;;